Time;durP1;ratioP1;P1;durP2;ratioP2;P2;SDS_P1;SDS_P2;PMS_P1;PMS_P2;Temp;Humidity;BMP_temperature;BMP_pressure;BME280_temperature;BME280_humidity;BME280_pressure;Samples;Min_cycle;Max_cycle;Signal;HPM_P1;HPM_P2
2022/04/25 00:01:53;;;;;;;;;;;;;;;9.59;53.31836;101135.5;;;;-80
2022/04/25 00:06:52;;;;;;;;;;;;;;;9.63;53.42285;101137.7;;;;-79
2022/04/25 00:11:53;;;;;;;;;;;;;;;9.65;53.0791;101137.3;;;;-81
2022/04/25 00:16:56;;;;;;;;;;;;;;;9.65;53.125;101130.5;;;;-81
2022/04/25 00:21:54;;;;;;;;;;;;;;;9.69;52.98438;101130.2;;;;-81
2022/04/25 00:25:16;;;;;;;8;3.6;;;;;;;;;;;;;-82
2022/04/25 00:26:54;;;;;;;;;;;;;;;9.71;53.2207;101130.8;;;;-82
2022/04/25 00:31:53;;;;;;;;;;;;;;;9.72;53.52344;101133.7;;;;-82
2022/04/25 00:36:53;;;;;;;;;;;;;;;9.73;53.58008;101127;;;;-80
2022/04/25 00:41:53;;;;;;;;;;;;;;;9.71;53.83301;101122.2;;;;-82
2022/04/25 00:46:54;;;;;;;;;;;;;;;9.72;53.91309;101121.7;;;;-83
2022/04/25 00:51:55;;;;;;;;;;;;;;;9.67;53.87305;101118.5;;;;-82
2022/04/25 00:55:17;;;;;;;6.2;3.4;;;;;;;;;;;;;-81
2022/04/25 00:56:53;;;;;;;;;;;;;;;9.67;53.63867;101119.3;;;;-82
2022/04/25 01:01:52;;;;;;;;;;;;;;;9.63;53.70117;101120.3;;;;-83
2022/04/25 01:06:52;;;;;;;;;;;;;;;9.56;53.83691;101119.2;;;;-80
2022/04/25 01:11:52;;;;;;;;;;;;;;;9.51;53.8418;101118.1;;;;-82
2022/04/25 01:16:54;;;;;;;;;;;;;;;9.47;53.9707;101118.8;;;;-82
2022/04/25 01:21:55;;;;;;;;;;;;;;;9.43;54.01074;101116.7;;;;-80
2022/04/25 01:31:52;;;;;;;;;;;;;;;9.41;54.08496;101118.1;;;;-81
2022/04/25 01:36:52;;;;;;;;;;;;;;;9.42;54.49805;101111.6;;;;-83
2022/04/25 01:41:54;;;;;;;;;;;;;;;9.44;54.8457;101115.4;;;;-82
2022/04/25 01:46:52;;;;;;;;;;;;;;;9.45;55.31348;101115.9;;;;-82
2022/04/25 01:51:52;;;;;;;;;;;;;;;9.43;55.53418;101111.9;;;;-82
2022/04/25 01:55:17;;;;;;;6.9;3.2;;;;;;;;;;;;;-81
2022/04/25 01:56:52;;;;;;;;;;;;;;;9.48;55.5293;101113.9;;;;-81
2022/04/25 02:01:53;;;;;;;;;;;;;;;9.52;55.67773;101109.6;;;;-82
2022/04/25 02:06:53;;;;;;;;;;;;;;;9.55;56.2041;101104.8;;;;-82
2022/04/25 02:11:55;;;;;;;;;;;;;;;9.58;56.16504;101097.9;;;;-82
2022/04/25 02:16:53;;;;;;;;;;;;;;;9.59;56.22168;101092.8;;;;-81
2022/04/25 02:21:53;;;;;;;;;;;;;;;9.59;56.63184;101094.4;;;;-80
2022/04/25 02:25:19;;;;;;;10.4;4.1;;;;;;;;;;;;;-81
2022/04/25 02:26:52;;;;;;;;;;;;;;;9.58;57.17578;101089.7;;;;-80
2022/04/25 02:31:53;;;;;;;;;;;;;;;9.65;56.78613;101087;;;;-80
2022/04/25 02:36:52;;;;;;;;;;;;;;;9.65;56.4834;101089.4;;;;-80
2022/04/25 02:41:53;;;;;;;;;;;;;;;9.65;56.79492;101087;;;;-83
2022/04/25 02:46:55;;;;;;;;;;;;;;;9.65;56.93945;101091.8;;;;-83
2022/04/25 02:51:52;;;;;;;;;;;;;;;9.67;56.90918;101091.9;;;;-82
2022/04/25 02:55:19;;;;;;;9.9;4.5;;;;;;;;;;;;;-82
2022/04/25 02:56:52;;;;;;;;;;;;;;;9.66;57.15332;101090.8;;;;-81
2022/04/25 03:01:54;;;;;;;;;;;;;;;9.65;57.49512;101094.8;;;;-79
2022/04/25 03:06:55;;;;;;;;;;;;;;;9.63;57.31641;101092.5;;;;-82
2022/04/25 03:11:54;;;;;;;;;;;;;;;9.61;57.19043;101095.7;;;;-83
2022/04/25 03:16:53;;;;;;;;;;;;;;;9.59;56.89844;101093;;;;-83
2022/04/25 03:21:53;;;;;;;;;;;;;;;9.5;57.11035;101095.9;;;;-82
2022/04/25 03:25:20;;;;;;;11.5;4.5;;;;;;;;;;;;;-81
2022/04/25 03:26:52;;;;;;;;;;;;;;;9.44;56.58984;101098.7;;;;-81
2022/04/25 03:31:52;;;;;;;;;;;;;;;9.36;56.41309;101101.2;;;;-81
2022/04/25 03:36:56;;;;;;;;;;;;;;;9.26;56.37793;101103;;;;-81
2022/04/25 03:41:53;;;;;;;;;;;;;;;9.16;56.32129;101096.6;;;;-82
2022/04/25 03:46:52;;;;;;;;;;;;;;;9.06;56.34082;101101.5;;;;-81
2022/04/25 03:51:54;;;;;;;;;;;;;;;8.99;56.17773;101104;;;;-81
2022/04/25 04:01:52;;;;;;;;;;;;;;;8.87;56.37207;101107.4;;;;-81
2022/04/25 04:06:55;;;;;;;;;;;;;;;8.86;56.25977;101113.5;;;;-82
2022/04/25 04:11:52;;;;;;;;;;;;;;;8.85;56.18066;101116.7;;;;-80
2022/04/25 04:16:52;;;;;;;;;;;;;;;8.85;56.11523;101118;;;;-82
2022/04/25 04:21:55;;;;;;;;;;;;;;;8.86;56.2041;101122;;;;-83
2022/04/25 04:25:18;;;;;;;9.6;4.6;;;;;;;;;;;;;-81
2022/04/25 04:26:52;;;;;;;;;;;;;;;8.87;56.57227;101131.3;;;;-83
2022/04/25 04:31:53;;;;;;;;;;;;;;;8.89;57.0625;101127.2;;;;-82
2022/04/25 04:36:53;;;;;;;;;;;;;;;8.91;58.26465;101138.4;;;;-83
2022/04/25 04:41:53;;;;;;;;;;;;;;;8.95;57.8252;101143.4;;;;-83
2022/04/25 04:46:52;;;;;;;;;;;;;;;8.97;57.79492;101148.1;;;;-83
2022/04/25 04:51:53;;;;;;;;;;;;;;;9;58.375;101155.3;;;;-81
2022/04/25 04:55:18;;;;;;;11;4.9;;;;;;;;;;;;;-82
2022/04/25 04:56:52;;;;;;;;;;;;;;;9.02;59.14355;101165.1;;;;-78
2022/04/25 05:01:53;;;;;;;;;;;;;;;9.02;59.84375;101167.7;;;;-81
2022/04/25 05:06:52;;;;;;;;;;;;;;;9.02;60.23145;101173.5;;;;-82
2022/04/25 05:11:54;;;;;;;;;;;;;;;9.04;59.8125;101174.1;;;;-82
2022/04/25 05:16:55;;;;;;;;;;;;;;;9.04;60.33398;101179.5;;;;-80
2022/04/25 05:21:55;;;;;;;;;;;;;;;9.05;60.20215;101183;;;;-84
2022/04/25 05:25:24;;;;;;;11.1;5.1;;;;;;;;;;;;;-82
2022/04/25 05:26:52;;;;;;;;;;;;;;;9.07;60.16992;101186.1;;;;-83
2022/04/25 05:31:54;;;;;;;;;;;;;;;9.09;60.00781;101191.8;;;;-81
2022/04/25 05:36:53;;;;;;;;;;;;;;;9.07;60.24902;101195.1;;;;-80
2022/04/25 05:41:59;;;;;;;;;;;;;;;9.09;60.08496;101196.5;;;;-83
2022/04/25 05:46:53;;;;;;;;;;;;;;;9.1;60.56445;101213.2;;;;-82
2022/04/25 05:52:05;;;;;;;;;;;;;;;9.12;60.21289;101220.2;;;;-81
2022/04/25 05:55:18;;;;;;;10.4;4.9;;;;;;;;;;;;;-82
2022/04/25 05:56:52;;;;;;;;;;;;;;;9.17;60.15234;101225;;;;-84
2022/04/25 06:01:53;;;;;;;;;;;;;;;9.21;59.94727;101224;;;;-84
2022/04/25 06:06:53;;;;;;;;;;;;;;;9.27;60.02148;101226.5;;;;-82
2022/04/25 06:11:53;;;;;;;;;;;;;;;9.33;60.45117;101227.6;;;;-81
2022/04/25 06:16:59;;;;;;;;;;;;;;;9.4;61.07129;101239;;;;-80
2022/04/25 06:21:52;;;;;;;;;;;;;;;9.46;61.08008;101240.7;;;;-82
2022/04/25 06:25:25;;;;;;;11.1;4.9;;;;;;;;;;;;;-81
2022/04/25 06:26:52;;;;;;;;;;;;;;;9.52;61.38867;101239.7;;;;-83
2022/04/25 06:31:53;;;;;;;;;;;;;;;9.57;61.1748;101241.6;;;;-80
2022/04/25 06:36:55;;;;;;;;;;;;;;;9.65;60.72852;101245;;;;-82
2022/04/25 06:41:57;;;;;;;;;;;;;;;9.71;60.45996;101242.7;;;;-82
2022/04/25 06:46:54;;;;;;;;;;;;;;;9.77;60.42383;101249.2;;;;-82
2022/04/25 06:51:52;;;;;;;;;;;;;;;9.81;60.30664;101247;;;;-83
2022/04/25 06:55:19;;;;;;;10.4;4.7;;;;;;;;;;;;;-82
2022/04/25 06:56:52;;;;;;;;;;;;;;;9.84;60.25488;101248.1;;;;-82
2022/04/25 07:01:58;;;;;;;;;;;;;;;9.9;59.9873;101246.5;;;;-81
2022/04/25 07:06:55;;;;;;;;;;;;;;;9.95;60.23828;101253;;;;-82
2022/04/25 07:11:54;;;;;;;;;;;;;;;10;59.97852;101255.6;;;;-81
2022/04/25 07:16:57;;;;;;;;;;;;;;;10.05;59.48438;101255.8;;;;-82
2022/04/25 07:31:52;;;;;;;;;;;;;;;10.17;58.93359;101267.7;;;;-81
2022/04/25 07:36:55;;;;;;;;;;;;;;;10.18;58.74609;101271.7;;;;-80
2022/04/25 07:41:53;;;;;;;;;;;;;;;10.16;58.6875;101275.9;;;;-81
2022/04/25 07:46:58;;;;;;;;;;;;;;;10.15;58.71973;101277.5;;;;-81
2022/04/25 07:51:52;;;;;;;;;;;;;;;10.16;58.50977;101281.2;;;;-80
2022/04/25 07:55:20;;;;;;;8.9;4.4;;;;;;;;;;;;;-81
2022/04/25 07:56:52;;;;;;;;;;;;;;;10.17;58.50977;101285.1;;;;-81
2022/04/25 08:01:52;;;;;;;;;;;;;;;10.17;58.56738;101284.3;;;;-83
2022/04/25 08:06:52;;;;;;;;;;;;;;;10.21;58.42676;101284.5;;;;-82
2022/04/25 08:21:57;;;;;;;;;;;;;;;10.38;58.34961;101287.1;;;;-82
2022/04/25 08:25:21;;;;;;;8.3;4.5;;;;;;;;;;;;;-83
2022/04/25 08:26:53;;;;;;;;;;;;;;;10.44;58.36914;101289.8;;;;-83
2022/04/25 08:31:53;;;;;;;;;;;;;;;10.5;58.34375;101296.4;;;;-82
2022/04/25 08:36:54;;;;;;;;;;;;;;;10.59;58.14355;101301.7;;;;-81
2022/04/25 08:41:57;;;;;;;;;;;;;;;10.66;58.01855;101302.1;;;;-80
2022/04/25 08:46:55;;;;;;;;;;;;;;;10.72;57.7832;101306.3;;;;-83
2022/04/25 08:51:58;;;;;;;;;;;;;;;10.78;57.86816;101309.1;;;;-81
2022/04/25 08:55:22;;;;;;;9.8;4.6;;;;;;;;;;;;;-83
2022/04/25 08:56:53;;;;;;;;;;;;;;;10.83;57.61914;101316;;;;-81
2022/04/25 09:01:53;;;;;;;;;;;;;;;10.85;57.65527;101323.3;;;;-79
2022/04/25 09:06:55;;;;;;;;;;;;;;;10.86;57.75684;101332.4;;;;-81
2022/04/25 09:16:52;;;;;;;;;;;;;;;10.89;57.48145;101338.9;;;;-81
2022/04/25 09:21:54;;;;;;;;;;;;;;;10.9;57.55078;101335.9;;;;-80
2022/04/25 09:25:26;;;;;;;10.9;5;;;;;;;;;;;;;-81
2022/04/25 09:26:53;;;;;;;;;;;;;;;10.92;57.6416;101345.2;;;;-82
2022/04/25 09:31:54;;;;;;;;;;;;;;;10.92;57.46289;101353.3;;;;-80
2022/04/25 09:36:55;;;;;;;;;;;;;;;10.93;57.7207;101356.3;;;;-79
2022/04/25 09:41:56;;;;;;;;;;;;;;;10.98;57.63867;101359.1;;;;-81
2022/04/25 09:46:55;;;;;;;;;;;;;;;11.03;57.70117;101363.2;;;;-82
2022/04/25 09:52:12;;;;;;;;;;;;;;;11.07;57.48438;101370.2;;;;-81
2022/04/25 09:55:25;;;;;;;10.9;5.7;;;;;;;;;;;;;-82
2022/04/25 09:56:53;;;;;;;;;;;;;;;11.11;57.44336;101373.7;;;;-82
2022/04/25 10:02:04;;;;;;;;;;;;;;;11.12;57.5459;101383.2;;;;-79
2022/04/25 10:06:53;;;;;;;;;;;;;;;11.17;57.26367;101390.1;;;;-80
2022/04/25 10:11:53;;;;;;;;;;;;;;;11.2;57.37891;101395.5;;;;-78
2022/04/25 10:16:53;;;;;;;;;;;;;;;11.21;57.25586;101395.1;;;;-81
2022/04/25 10:21:55;;;;;;;;;;;;;;;11.23;57.06836;101398.3;;;;-83
2022/04/25 10:25:23;;;;;;;10.5;5.4;;;;;;;;;;;;;-78
2022/04/25 10:26:53;;;;;;;;;;;;;;;11.26;57.14063;101409.6;;;;-80
2022/04/25 10:31:53;;;;;;;;;;;;;;;11.31;56.81152;101406.7;;;;-80
2022/04/25 10:36:54;;;;;;;;;;;;;;;11.4;56.59961;101408.3;;;;-81
2022/04/25 10:47:03;;;;;;;;;;;;;;;11.64;56.48535;101410.8;;;;-83
2022/04/25 10:51:52;;;;;;;;;;;;;;;11.79;56.29395;101416.2;;;;-81
2022/04/25 10:55:29;;;;;;;11;5.4;;;;;;;;;;;;;-82
2022/04/25 10:57:03;;;;;;;;;;;;;;;11.93;56.03125;101416.7;;;;-80
2022/04/25 11:01:53;;;;;;;;;;;;;;;11.97;55.79102;101423;;;;-80
2022/04/25 11:07:02;;;;;;;;;;;;;;;11.96;55.83496;101431.2;;;;-82
2022/04/25 11:11:55;;;;;;;;;;;;;;;11.92;55.88477;101440.7;;;;-80
2022/04/25 11:17:06;;;;;;;;;;;;;;;11.8;55.99219;101440.8;;;;-81
2022/04/25 11:21:55;;;;;;;;;;;;;;;11.69;56.10156;101443.1;;;;-81
2022/04/25 11:25:36;;;;;;;9.9;5.2;;;;;;;;;;;;;-80
2022/04/25 11:27:02;;;;;;;;;;;;;;;11.6;56.36914;101445.7;;;;-83
2022/04/25 11:31:53;;;;;;;;;;;;;;;11.49;56.70117;101449.9;;;;-83
2022/04/25 11:36:53;;;;;;;;;;;;;;;11.42;56.63672;101449.6;;;;-80
2022/04/25 11:41:52;;;;;;;;;;;;;;;11.35;56.85059;101452.7;;;;-81
2022/04/25 11:46:53;;;;;;;;;;;;;;;11.29;56.79883;101455.4;;;;-81
2022/04/25 11:52:03;;;;;;;;;;;;;;;11.3;56.73242;101458.2;;;;-82
2022/04/25 11:55:38;;;;;;;10.4;4.7;;;;;;;;;;;;;-80
2022/04/25 11:56:54;;;;;;;;;;;;;;;11.28;57.2207;101459.8;;;;-82
2022/04/25 12:01:54;;;;;;;;;;;;;;;11.28;57.36621;101467.4;;;;-81
2022/04/25 12:06:57;;;;;;;;;;;;;;;11.26;57.68555;101474.1;;;;-78
2022/04/25 12:16:54;;;;;;;;;;;;;;;11.32;57.92871;101474.1;;;;-80
2022/04/25 12:22:03;;;;;;;;;;;;;;;11.36;57.97949;101476.1;;;;-80
2022/04/25 12:25:28;;;;;;;7.7;4.6;;;;;;;;;;;;;-80
2022/04/25 12:26:54;;;;;;;;;;;;;;;11.44;58;101480.2;;;;-80
2022/04/25 12:31:54;;;;;;;;;;;;;;;11.6;57.98828;101482.5;;;;-79
2022/04/25 12:37:00;;;;;;;;;;;;;;;11.76;57.86328;101478.5;;;;-78
2022/04/25 12:42:01;;;;;;;;;;;;;;;11.88;57.68945;101485.1;;;;-80
2022/04/25 12:46:55;;;;;;;;;;;;;;;11.98;57.71484;101488.8;;;;-79
2022/04/25 12:52:01;;;;;;;;;;;;;;;12.06;57.45605;101491.5;;;;-80
2022/04/25 12:55:38;;;;;;;9.3;5.4;;;;;;;;;;;;;-78
2022/04/25 12:56:55;;;;;;;;;;;;;;;12.14;57.30078;101491.8;;;;-80
2022/04/25 13:02:01;;;;;;;;;;;;;;;12.23;57.19922;101494.3;;;;-80
2022/04/25 13:06:53;;;;;;;;;;;;;;;12.31;57.17676;101491.4;;;;-80
2022/04/25 13:11:52;;;;;;;;;;;;;;;12.4;56.91992;101500.9;;;;-81
2022/04/25 13:16:52;;;;;;;;;;;;;;;12.5;56.76465;101502.1;;;;-78
2022/04/25 13:21:52;;;;;;;;;;;;;;;12.63;56.64746;101502.2;;;;-80
2022/04/25 13:25:28;;;;;;;9.6;5.5;;;;;;;;;;;;;-79
2022/04/25 13:26:52;;;;;;;;;;;;;;;12.76;56.31738;101503.4;;;;-80
2022/04/25 13:31:53;;;;;;;;;;;;;;;12.88;56.05176;101503;;;;-81
2022/04/25 13:36:54;;;;;;;;;;;;;;;13;55.68652;101505.8;;;;-81
2022/04/25 13:41:56;;;;;;;;;;;;;;;13.14;55.29004;101506.3;;;;-82
2022/04/25 13:46:55;;;;;;;;;;;;;;;13.23;55.02051;101503.7;;;;-82
2022/04/25 13:51:54;;;;;;;;;;;;;;;13.3;54.89453;101509.4;;;;-79
2022/04/25 13:55:29;;;;;;;8.7;5.2;;;;;;;;;;;;;-79
2022/04/25 13:56:53;;;;;;;;;;;;;;;13.32;54.7627;101506.7;;;;-80
2022/04/25 14:01:54;;;;;;;;;;;;;;;13.33;54.67383;101510.3;;;;-81
2022/04/25 14:06:52;;;;;;;;;;;;;;;13.33;54.75098;101500.9;;;;-81
2022/04/25 14:11:53;;;;;;;;;;;;;;;13.31;54.60449;101501.8;;;;-81
2022/04/25 14:16:53;;;;;;;;;;;;;;;13.3;54.5918;101504.1;;;;-81
2022/04/25 14:21:54;;;;;;;;;;;;;;;13.28;54.71191;101502.4;;;;-77
2022/04/25 14:25:30;;;;;;;10.8;5.3;;;;;;;;;;;;;-76
2022/04/25 14:26:52;;;;;;;;;;;;;;;13.31;54.87402;101507.4;;;;-78
2022/04/25 14:31:53;;;;;;;;;;;;;;;13.36;54.59863;101506.1;;;;-76
2022/04/25 14:36:52;;;;;;;;;;;;;;;13.41;54.57227;101505.8;;;;-79
2022/04/25 14:41:52;;;;;;;;;;;;;;;13.45;54.54395;101505.5;;;;-76
2022/04/25 14:46:52;;;;;;;;;;;;;;;13.49;54.48145;101512.1;;;;-79
2022/04/25 14:55:32;;;;;;;9;5.3;;;;;;;;;;;;;-77
2022/04/25 14:56:54;;;;;;;;;;;;;;;13.52;54.28223;101519.9;;;;-79
2022/04/25 15:01:55;;;;;;;;;;;;;;;13.48;54.17676;101517.5;;;;-77
2022/04/25 15:06:55;;;;;;;;;;;;;;;13.44;54.14844;101517.1;;;;-76
2022/04/25 15:11:52;;;;;;;;;;;;;;;13.44;54.25;101515.3;;;;-80
2022/04/25 15:16:55;;;;;;;;;;;;;;;13.5;54.38086;101516.1;;;;-76
2022/04/25 15:21:54;;;;;;;;;;;;;;;13.57;54.33398;101517.7;;;;-77
2022/04/25 15:25:32;;;;;;;9.3;5.2;;;;;;;;;;;;;-76
2022/04/25 15:26:54;;;;;;;;;;;;;;;13.63;54.41895;101513.7;;;;-77
2022/04/25 15:31:53;;;;;;;;;;;;;;;13.7;54.26953;101515.4;;;;-78
2022/04/25 15:36:52;;;;;;;;;;;;;;;13.74;54.20801;101517.8;;;;-74
2022/04/25 15:41:52;;;;;;;;;;;;;;;13.79;54.13477;101517.4;;;;-78
2022/04/25 15:46:54;;;;;;;;;;;;;;;13.83;54.04102;101513.6;;;;-75
2022/04/25 15:51:54;;;;;;;;;;;;;;;13.85;54.00781;101511;;;;-76
2022/04/25 16:01:52;;;;;;;;;;;;;;;13.91;54.08496;101519.5;;;;-77
2022/04/25 16:06:54;;;;;;;;;;;;;;;13.9;54.00293;101516.9;;;;-77
2022/04/25 16:11:52;;;;;;;;;;;;;;;13.85;54.05273;101527.2;;;;-76
2022/04/25 16:16:53;;;;;;;;;;;;;;;13.76;54.02051;101526;;;;-77
2022/04/25 16:21:52;;;;;;;;;;;;;;;13.64;54.25293;101531;;;;-75
2022/04/25 16:25:35;;;;;;;9;5;;;;;;;;;;;;;-77
2022/04/25 16:26:52;;;;;;;;;;;;;;;13.52;54.32715;101529.1;;;;-77
2022/04/25 16:31:53;;;;;;;;;;;;;;;13.42;54.39355;101530;;;;-76
2022/04/25 16:36:56;;;;;;;;;;;;;;;13.32;54.54883;101525.8;;;;-76
2022/04/25 16:41:53;;;;;;;;;;;;;;;13.21;54.65918;101521.7;;;;-78
2022/04/25 16:51:56;;;;;;;;;;;;;;;13;54.76758;101527.7;;;;-79
2022/04/25 16:55:36;;;;;;;8.2;4.7;;;;;;;;;;;;;-80
2022/04/25 16:56:54;;;;;;;;;;;;;;;12.92;54.86914;101528.4;;;;-82
2022/04/25 17:01:58;;;;;;;;;;;;;;;12.85;54.83789;101526.5;;;;-80
2022/04/25 17:06:54;;;;;;;;;;;;;;;12.82;54.52051;101526.6;;;;-81
2022/04/25 17:11:53;;;;;;;;;;;;;;;12.79;54.54004;101529.9;;;;-81
2022/04/25 17:16:52;;;;;;;;;;;;;;;12.75;54.74707;101527;;;;-80
2022/04/25 17:21:56;;;;;;;;;;;;;;;12.72;54.95605;101533.3;;;;-80
2022/04/25 17:25:39;;;;;;;9.4;4.2;;;;;;;;;;;;;-81
2022/04/25 17:26:53;;;;;;;;;;;;;;;12.69;54.95313;101531.7;;;;-82
